Time;durP1;ratioP1;P1;durP2;ratioP2;P2;SDS_P1;SDS_P2;PMS_P1;PMS_P2;Temp;Humidity;BMP_temperature;BMP_pressure;BME280_temperature;BME280_humidity;BME280_pressure;Samples;Min_cycle;Max_cycle;Signal;HPM_P1;HPM_P2
2021/03/18 00:01:21;;;;;;;2.20;2.00;;;2.90;99.90;;;;;;5034113;28;20682;-75
2021/03/18 00:03:49;;;;;;;2.73;2.13;;;2.90;99.90;;;;;;5034400;28;20258;-75
2021/03/18 00:06:15;;;;;;;2.13;1.90;;;2.80;99.90;;;;;;5032770;28;20178;-75
2021/03/18 00:08:42;;;;;;;2.90;2.17;;;2.80;99.90;;;;;;5032876;28;20172;-75
2021/03/18 00:11:10;;;;;;;3.43;2.27;;;2.90;99.90;;;;;;5034160;28;20205;-75
2021/03/18 00:13:38;;;;;;;2.30;2.10;;;2.90;99.90;;;;;;5034087;28;20648;-76
2021/03/18 00:16:04;;;;;;;1.90;1.70;;;2.90;99.90;;;;;;5024127;28;20184;-75
2021/03/18 00:18:34;;;;;;;2.23;1.83;;;2.90;99.90;;;;;;5037220;28;20232;-75
2021/03/18 00:21:01;;;;;;;1.80;1.70;;;2.90;99.90;;;;;;5035099;28;20209;-75
2021/03/18 00:23:29;;;;;;;2.10;1.80;;;2.90;99.90;;;;;;5033745;28;20212;-75
2021/03/18 00:25:55;;;;;;;2.00;1.80;;;2.90;99.90;;;;;;5035440;28;20187;-75
2021/03/18 00:28:21;;;;;;;2.13;1.83;;;2.80;99.90;;;;;;5035078;28;20210;-75
2021/03/18 00:30:47;;;;;;;2.60;1.50;;;2.80;99.90;;;;;;5034143;28;20273;-75
2021/03/18 00:33:13;;;;;;;1.80;1.60;;;2.80;99.90;;;;;;5035198;28;20210;-75
2021/03/18 00:35:39;;;;;;;2.13;1.80;;;2.70;99.90;;;;;;5035395;28;20189;-75
2021/03/18 00:38:06;;;;;;;2.03;1.67;;;2.60;99.90;;;;;;5035099;28;20289;-75
2021/03/18 00:40:35;;;;;;;2.83;1.90;;;2.60;99.90;;;;;;5033991;28;20213;-75
2021/03/18 00:43:04;;;;;;;1.97;1.77;;;2.60;99.90;;;;;;5033719;28;20182;-75
2021/03/18 00:45:32;;;;;;;2.93;1.70;;;2.60;99.90;;;;;;5033987;28;20174;-75
2021/03/18 00:47:58;;;;;;;2.03;1.80;;;2.60;99.90;;;;;;5033463;28;20588;-75
2021/03/18 00:50:40;;;;;;;4.90;2.37;;;2.60;99.90;;;;;;5032180;28;20190;-75
2021/03/18 00:53:07;;;;;;;1.90;1.63;;;2.60;99.90;;;;;;5033411;28;20944;-75
2021/03/18 00:55:33;;;;;;;2.47;1.80;;;2.60;99.90;;;;;;5034206;28;20262;-76
2021/03/18 00:58:00;;;;;;;3.53;2.17;;;2.60;99.90;;;;;;5033816;28;20237;-75
2021/03/18 01:00:30;;;;;;;3.93;3.43;;;2.60;99.90;;;;;;5032803;28;20274;-75
2021/03/18 01:02:57;;;;;;;2.43;2.27;;;2.60;99.90;;;;;;5033538;28;20233;-74
2021/03/18 01:05:34;;;;;;;2.90;2.40;;;2.60;99.90;;;;;;5031936;28;20175;-75
2021/03/18 01:08:00;;;;;;;4.47;3.47;;;2.60;99.90;;;;;;5033031;28;20190;-75
2021/03/18 01:10:29;;;;;;;5.40;4.20;;;2.60;99.90;;;;;;5033270;28;20171;-75
2021/03/18 01:12:55;;;;;;;4.00;2.53;;;2.60;99.90;;;;;;5033344;28;20262;-76
2021/03/18 01:15:25;;;;;;;3.50;2.30;;;2.50;99.90;;;;;;5022937;28;20185;-73
2021/03/18 01:17:51;;;;;;;3.10;2.30;;;2.60;99.90;;;;;;5031883;28;20205;-75
2021/03/18 01:20:18;;;;;;;3.90;2.47;;;2.50;99.90;;;;;;5033104;28;20178;-75
2021/03/18 01:22:43;;;;;;;3.10;2.40;;;2.50;99.90;;;;;;5032747;28;20689;-75
2021/03/18 01:25:10;;;;;;;3.23;2.93;;;2.50;99.90;;;;;;5032949;28;20175;-76
2021/03/18 01:27:38;;;;;;;4.40;2.53;;;2.50;99.90;;;;;;5032568;28;20210;-75
2021/03/18 01:30:13;;;;;;;3.47;2.80;;;2.50;99.90;;;;;;5032775;28;20645;-75
2021/03/18 01:32:39;;;;;;;2.87;2.57;;;2.50;99.90;;;;;;5031305;28;20174;-75
2021/03/18 01:35:13;;;;;;;4.00;3.30;;;2.50;99.90;;;;;;5032908;28;20186;-75
2021/03/18 01:37:39;;;;;;;3.00;2.60;;;2.50;99.90;;;;;;5032749;28;20198;-75
2021/03/18 01:40:07;;;;;;;3.17;2.57;;;2.50;99.90;;;;;;5031209;28;20629;-75
2021/03/18 01:42:33;;;;;;;3.00;2.57;;;2.50;99.90;;;;;;5030062;28;20569;-75
2021/03/18 01:45:00;;;;;;;3.43;2.77;;;2.50;99.90;;;;;;5031085;28;20170;-75
2021/03/18 01:47:26;;;;;;;2.83;2.63;;;2.50;99.90;;;;;;5032268;28;20728;-75
2021/03/18 01:49:53;;;;;;;4.27;2.73;;;2.50;99.90;;;;;;5032550;28;20571;-75
2021/03/18 01:52:19;;;;;;;5.03;2.80;;;2.50;99.90;;;;;;5033291;28;20617;-75
2021/03/18 01:54:44;;;;;;;3.27;2.73;;;2.50;99.90;;;;;;5033142;28;20218;-76
2021/03/18 01:57:10;;;;;;;3.13;2.60;;;2.50;99.90;;;;;;5032191;28;20206;-75
2021/03/18 01:59:36;;;;;;;3.97;3.27;;;2.50;99.90;;;;;;5032120;28;20179;-75
2021/03/18 02:02:02;;;;;;;5.13;2.80;;;2.50;99.90;;;;;;5031922;28;20202;-76
2021/03/18 02:04:28;;;;;;;3.37;2.70;;;2.40;99.90;;;;;;5023284;28;20612;-75
2021/03/18 02:06:54;;;;;;;3.27;2.80;;;2.40;99.90;;;;;;5031743;28;20268;-76
2021/03/18 02:09:20;;;;;;;3.87;3.03;;;2.40;99.90;;;;;;5032213;28;20179;-75
2021/03/18 02:11:46;;;;;;;3.57;3.27;;;2.30;99.90;;;;;;5031786;28;20262;-75
2021/03/18 02:14:13;;;;;;;4.53;3.80;;;2.30;99.90;;;;;;5027842;28;20737;-75
2021/03/18 02:16:42;;;;;;;4.30;3.37;;;2.30;99.90;;;;;;5027545;28;20214;-75
2021/03/18 02:19:45;;;;;;;5.50;3.50;;;2.30;99.90;;;;;;5031810;28;20189;-75
2021/03/18 02:22:30;;;;;;;6.70;3.30;;;2.30;99.90;;;;;;5031548;28;20690;-76
2021/03/18 02:25:10;;;;;;;4.30;3.90;;;2.40;99.90;;;;;;5031718;28;20181;-75
2021/03/18 02:28:12;;;;;;;6.03;3.80;;;2.40;99.90;;;;;;5031373;28;20584;-75
2021/03/18 02:30:56;;;;;;;5.27;3.60;;;2.40;99.90;;;;;;5031568;28;20190;-76
2021/03/18 02:33:44;;;;;;;4.50;3.87;;;2.40;99.90;;;;;;5030486;28;20899;-76
2021/03/18 02:36:17;;;;;;;4.00;3.53;;;2.40;99.90;;;;;;5030020;28;20545;-75
2021/03/18 02:38:50;;;;;;;5.20;3.90;;;2.50;99.90;;;;;;5031398;28;20185;-75
2021/03/18 02:41:28;;;;;;;4.07;3.53;;;2.50;99.90;;;;;;5031297;28;20210;-75
2021/03/18 02:44:08;;;;;;;5.27;3.80;;;2.50;99.90;;;;;;5029779;28;20178;-75
2021/03/18 02:46:37;;;;;;;4.33;3.93;;;2.50;99.90;;;;;;5031975;28;20893;-75
2021/03/18 02:49:05;;;;;;;4.63;4.13;;;2.40;99.90;;;;;;5031181;28;20186;-75
2021/03/18 02:51:33;;;;;;;4.87;3.87;;;2.50;99.90;;;;;;5031440;28;20182;-75
2021/03/18 02:54:04;;;;;;;4.67;3.97;;;2.40;99.90;;;;;;5029388;28;20182;-75
2021/03/18 02:56:31;;;;;;;8.17;3.90;;;2.40;99.90;;;;;;5031140;28;20664;-76
2021/03/18 02:59:00;;;;;;;4.63;3.80;;;2.30;99.90;;;;;;5031437;28;20188;-75
2021/03/18 03:01:27;;;;;;;6.60;4.27;;;2.40;99.90;;;;;;5030953;28;20234;-75
2021/03/18 03:03:55;;;;;;;4.27;3.87;;;2.30;99.90;;;;;;5031402;28;20186;-75
2021/03/18 03:06:22;;;;;;;4.73;4.33;;;2.20;99.90;;;;;;5024855;28;20184;-74
2021/03/18 03:08:49;;;;;;;4.37;3.93;;;2.20;99.90;;;;;;5033213;28;20179;-75
2021/03/18 03:11:20;;;;;;;4.97;3.80;;;2.20;99.90;;;;;;5033247;28;20217;-75
2021/03/18 03:13:47;;;;;;;4.77;4.17;;;2.20;99.90;;;;;;5032721;28;20189;-75
2021/03/18 03:16:16;;;;;;;4.23;3.93;;;2.20;99.90;;;;;;5025378;28;20210;-75
2021/03/18 03:18:43;;;;;;;4.50;4.10;;;2.20;99.90;;;;;;5033035;28;20231;-75
2021/03/18 03:21:12;;;;;;;4.10;3.80;;;2.20;99.90;;;;;;5033177;28;20258;-75
2021/03/18 03:23:39;;;;;;;3.80;3.43;;;2.10;99.90;;;;;;5033039;28;20190;-75
2021/03/18 03:26:06;;;;;;;3.43;3.20;;;2.10;99.90;;;;;;5032862;28;20210;-75
2021/03/18 03:28:35;;;;;;;4.40;4.00;;;2.00;99.90;;;;;;5011210;28;20208;-75
2021/03/18 03:31:01;;;;;;;4.87;4.40;;;1.90;99.90;;;;;;5003854;28;20182;-74
2021/03/18 03:33:28;;;;;;;5.73;4.33;;;1.90;99.90;;;;;;5002746;28;20183;-75
2021/03/18 03:35:55;;;;;;;5.63;4.03;;;1.90;99.90;;;;;;5027197;28;20186;-75
2021/03/18 03:38:21;;;;;;;6.70;4.30;;;1.80;99.90;;;;;;5021291;28;20700;-75
2021/03/18 03:40:47;;;;;;;6.23;4.30;;;1.90;99.90;;;;;;5032515;28;20189;-75
2021/03/18 03:43:14;;;;;;;5.67;4.20;;;1.90;99.90;;;;;;5031524;28;20273;-75
2021/03/18 03:45:40;;;;;;;6.43;4.37;;;1.90;99.90;;;;;;5033062;28;20189;-75
2021/03/18 03:48:06;;;;;;;3.87;3.53;;;1.90;99.90;;;;;;5032658;28;20198;-75
2021/03/18 03:50:32;;;;;;;4.10;3.50;;;1.80;99.90;;;;;;5033071;28;20182;-75
2021/03/18 03:53:04;;;;;;;4.30;3.87;;;1.70;99.90;;;;;;5032925;28;20190;-75
2021/03/18 03:55:42;;;;;;;10.23;4.53;;;1.70;99.90;;;;;;5033001;28;20261;-75
2021/03/18 03:58:34;;;;;;;4.00;3.60;;;1.70;99.90;;;;;;5032857;28;20194;-75
2021/03/18 04:01:04;;;;;;;6.80;3.97;;;1.70;99.90;;;;;;5031421;28;20222;-75
2021/03/18 04:03:31;;;;;;;4.07;3.70;;;1.80;99.90;;;;;;5032690;28;20197;-75
2021/03/18 04:05:58;;;;;;;4.57;3.80;;;1.80;99.90;;;;;;5036507;28;20257;-75
2021/03/18 04:08:27;;;;;;;6.00;4.00;;;1.80;99.90;;;;;;5032785;28;20214;-75
2021/03/18 04:10:55;;;;;;;5.87;5.20;;;1.80;99.90;;;;;;5036407;28;20637;-75
2021/03/18 04:13:24;;;;;;;5.93;4.67;;;1.80;99.90;;;;;;5036203;28;20189;-75
2021/03/18 04:15:51;;;;;;;7.53;4.53;;;1.90;99.90;;;;;;5027577;28;20206;-75
2021/03/18 04:18:17;;;;;;;6.20;4.40;;;2.00;99.90;;;;;;5034819;28;20194;-75
2021/03/18 04:20:44;;;;;;;7.70;4.13;;;2.00;99.90;;;;;;5034772;28;20179;-75
2021/03/18 04:23:11;;;;;;;4.93;4.43;;;2.00;99.90;;;;;;5036339;28;20191;-75
2021/03/18 04:25:39;;;;;;;8.40;4.73;;;2.00;99.90;;;;;;5035921;28;20175;-75
2021/03/18 04:28:10;;;;;;;7.33;4.23;;;2.00;99.90;;;;;;5035591;28;20218;-75
2021/03/18 04:30:39;;;;;;;5.63;4.17;;;2.00;99.90;;;;;;5036084;28;20182;-75
2021/03/18 04:33:06;;;;;;;3.80;3.50;;;2.10;99.90;;;;;;5027357;28;20190;-75
2021/03/18 04:35:32;;;;;;;6.70;4.53;;;2.10;99.90;;;;;;5035760;28;20703;-75
2021/03/18 04:38:01;;;;;;;4.53;3.63;;;2.00;99.90;;;;;;5035987;28;20207;-75
2021/03/18 04:40:27;;;;;;;5.87;4.10;;;2.00;99.90;;;;;;5035791;28;20183;-75
2021/03/18 04:42:53;;;;;;;5.60;3.83;;;2.00;99.90;;;;;;5035856;28;20539;-74
2021/03/18 04:45:21;;;;;;;4.40;4.00;;;2.00;99.90;;;;;;5035922;28;20232;-74
2021/03/18 04:47:49;;;;;;;8.43;4.60;;;2.00;99.90;;;;;;5035467;28;20214;-75
2021/03/18 04:50:20;;;;;;;5.20;4.33;;;2.00;99.90;;;;;;5035502;28;20182;-75
2021/03/18 04:52:46;;;;;;;5.73;4.77;;;2.00;99.90;;;;;;5036173;28;20190;-75
2021/03/18 04:55:13;;;;;;;5.63;5.00;;;2.00;99.90;;;;;;5035209;28;20182;-74
2021/03/18 04:57:55;;;;;;;6.17;4.57;;;2.00;99.90;;;;;;5027502;28;20623;-75
2021/03/18 05:00:22;;;;;;;4.80;3.60;;;2.00;99.90;;;;;;5032320;28;20182;-75
2021/03/18 05:02:48;;;;;;;4.53;4.13;;;2.00;99.90;;;;;;5014674;28;20210;-75
2021/03/18 05:05:17;;;;;;;4.23;3.73;;;2.00;99.90;;;;;;5026732;28;20167;-75
2021/03/18 05:07:45;;;;;;;4.97;4.00;;;2.00;99.90;;;;;;5015974;28;20202;-75
2021/03/18 05:10:13;;;;;;;4.73;4.33;;;2.00;99.90;;;;;;5023859;28;20208;-75
2021/03/18 05:12:39;;;;;;;5.27;4.77;;;2.00;99.90;;;;;;5034369;28;20183;-75
2021/03/18 05:15:07;;;;;;;6.70;4.67;;;2.00;99.90;;;;;;5025304;28;20186;-75
2021/03/18 05:17:36;;;;;;;5.80;5.23;;;2.00;99.90;;;;;;5024092;28;20206;-75
2021/03/18 05:20:06;;;;;;;6.33;5.73;;;2.00;99.90;;;;;;5027064;28;20252;-75
2021/03/18 05:22:32;;;;;;;5.57;4.63;;;2.10;99.90;;;;;;5032006;28;20207;-75
2021/03/18 05:25:00;;;;;;;4.93;4.53;;;2.10;99.90;;;;;;5033975;28;20189;-75
2021/03/18 05:27:26;;;;;;;5.07;4.30;;;2.10;99.90;;;;;;5041496;23;20681;-72
2021/03/18 05:29:52;;;;;;;9.67;5.10;;;2.10;99.90;;;;;;5038911;28;20253;-71
2021/03/18 05:32:18;;;;;;;6.33;4.87;;;2.00;99.90;;;;;;5035007;28;20236;-71
2021/03/18 05:34:43;;;;;;;9.33;4.97;;;2.00;99.90;;;;;;5041225;28;20182;-71
2021/03/18 05:37:09;;;;;;;5.10;4.70;;;2.10;99.90;;;;;;5040275;28;20631;-71
2021/03/18 05:39:34;;;;;;;6.20;4.70;;;2.00;99.90;;;;;;5025419;28;20222;-71
2021/03/18 05:42:02;;;;;;;7.40;4.90;;;2.00;99.90;;;;;;5034078;28;20293;-72
2021/03/18 05:44:28;;;;;;;6.53;5.13;;;2.00;99.90;;;;;;5034559;28;20233;-71
2021/03/18 05:46:53;;;;;;;6.67;5.23;;;1.90;99.90;;;;;;5034360;28;20677;-71
2021/03/18 05:49:20;;;;;;;5.87;5.23;;;2.10;99.90;;;;;;5034439;28;20562;-72
2021/03/18 05:51:49;;;;;;;7.10;4.87;;;2.00;99.90;;;;;;5034501;28;20178;-72
2021/03/18 05:54:19;;;;;;;6.30;5.70;;;2.00;99.90;;;;;;5034472;28;20189;-71
2021/03/18 05:56:45;;;;;;;9.40;5.67;;;2.00;99.90;;;;;;5034002;28;20186;-71
2021/03/18 05:59:12;;;;;;;6.37;5.70;;;2.00;99.90;;;;;;5034399;28;20206;-71
2021/03/18 06:01:39;;;;;;;7.30;5.47;;;2.20;99.90;;;;;;5033477;28;20199;-72
2021/03/18 06:04:05;;;;;;;10.33;6.70;;;2.10;99.90;;;;;;5033008;28;20179;-72
2021/03/18 06:06:32;;;;;;;22.13;11.30;;;2.10;99.90;;;;;;5034160;28;20193;-72
2021/03/18 06:08:58;;;;;;;17.77;7.23;;;2.20;99.90;;;;;;5029751;28;20237;-72
2021/03/18 06:11:24;;;;;;;25.53;9.57;;;2.10;99.90;;;;;;5032717;28;20672;-72
2021/03/18 06:13:50;;;;;;;11.97;7.00;;;2.30;99.90;;;;;;5034232;28;20593;-72
2021/03/18 06:16:16;;;;;;;9.57;5.67;;;2.10;99.90;;;;;;5034155;28;20174;-72
2021/03/18 06:18:43;;;;;;;8.27;6.13;;;2.10;99.90;;;;;;5033783;28;20206;-72
2021/03/18 06:21:09;;;;;;;10.13;7.07;;;2.10;99.90;;;;;;5032994;28;20198;-72
2021/03/18 06:23:35;;;;;;;7.70;6.37;;;2.20;99.90;;;;;;5033842;28;20237;-73
2021/03/18 06:26:02;;;;;;;9.90;6.57;;;2.20;99.90;;;;;;5033918;28;20175;-72
2021/03/18 06:28:29;;;;;;;16.30;10.70;;;2.20;99.90;;;;;;5032592;28;20214;-72
2021/03/18 06:30:55;;;;;;;8.60;6.20;;;2.20;99.90;;;;;;5033738;28;20171;-72
2021/03/18 06:33:23;;;;;;;8.20;7.40;;;2.20;99.90;;;;;;5033996;28;20692;-72
2021/03/18 06:35:49;;;;;;;7.20;6.40;;;2.30;99.90;;;;;;5033798;28;20190;-73
2021/03/18 06:38:15;;;;;;;8.67;6.33;;;2.30;99.90;;;;;;5033569;28;20545;-72
2021/03/18 06:40:43;;;;;;;11.63;6.07;;;2.30;99.90;;;;;;5033782;28;20182;-72
2021/03/18 06:43:10;;;;;;;7.77;6.63;;;2.40;99.90;;;;;;5032426;28;20185;-72
2021/03/18 06:45:41;;;;;;;9.13;6.17;;;2.40;99.90;;;;;;5033481;28;20180;-72
2021/03/18 06:48:12;;;;;;;9.03;6.83;;;2.40;99.90;;;;;;5033818;28;20190;-72
2021/03/18 06:50:43;;;;;;;11.43;7.43;;;2.40;99.90;;;;;;5033551;28;20297;-71
2021/03/18 06:53:24;;;;;;;9.20;6.87;;;2.40;99.90;;;;;;5032371;28;20178;-72
2021/03/18 06:55:51;;;;;;;11.43;7.47;;;2.40;99.90;;;;;;5033760;28;20240;-72
2021/03/18 06:58:27;;;;;;;8.00;6.90;;;2.50;99.90;;;;;;5033238;28;20201;-73
2021/03/18 07:01:04;;;;;;;8.50;7.70;;;2.50;99.90;;;;;;5033336;28;20167;-72
2021/03/18 07:03:35;;;;;;;8.23;6.70;;;2.50;99.90;;;;;;5033157;28;20231;-72
2021/03/18 07:06:03;;;;;;;9.60;7.43;;;2.50;99.90;;;;;;5033185;28;20182;-72
2021/03/18 07:08:38;;;;;;;10.57;7.70;;;2.40;99.90;;;;;;5033089;28;20190;-72
2021/03/18 07:11:21;;;;;;;7.13;6.43;;;2.50;99.90;;;;;;5033326;28;20590;-72
2021/03/18 07:13:47;;;;;;;10.43;6.90;;;2.50;99.90;;;;;;5033314;28;20178;-73
2021/03/18 07:16:15;;;;;;;7.87;7.07;;;2.60;99.90;;;;;;5033415;28;20175;-72
2021/03/18 07:18:53;;;;;;;7.17;6.47;;;2.60;99.90;;;;;;5031699;28;20606;-72
2021/03/18 07:21:19;;;;;;;7.97;7.10;;;2.60;99.90;;;;;;5033010;28;20561;-72
2021/03/18 07:23:46;;;;;;;8.70;7.63;;;2.70;99.90;;;;;;5032955;28;20179;-72
2021/03/18 07:26:21;;;;;;;7.53;6.83;;;2.80;99.90;;;;;;5033264;28;20180;-73
2021/03/18 07:28:51;;;;;;;9.77;7.50;;;2.80;99.90;;;;;;5032812;28;20221;-72
2021/03/18 07:31:21;;;;;;;11.13;7.40;;;2.90;99.90;;;;;;5032991;28;20181;-72
2021/03/18 07:33:51;;;;;;;9.13;7.37;;;2.80;99.90;;;;;;5032010;28;20273;-72
2021/03/18 07:36:17;;;;;;;8.00;7.20;;;2.90;99.90;;;;;;5033177;28;20257;-72
2021/03/18 07:38:44;;;;;;;11.17;7.87;;;2.70;99.90;;;;;;5033318;28;20191;-72
2021/03/18 07:41:15;;;;;;;7.87;7.17;;;2.70;99.90;;;;;;5036823;28;20198;-72
2021/03/18 07:43:45;;;;;;;10.27;8.33;;;2.70;99.90;;;;;;5036985;28;20170;-72
2021/03/18 07:46:19;;;;;;;9.53;7.90;;;2.70;99.90;;;;;;5024056;28;20174;-72
2021/03/18 07:48:49;;;;;;;10.73;7.43;;;2.80;99.90;;;;;;5036798;28;20194;-72
2021/03/18 07:51:17;;;;;;;9.23;7.30;;;2.80;99.90;;;;;;5036627;28;20719;-72
2021/03/18 07:53:46;;;;;;;11.07;8.77;;;2.90;99.90;;;;;;5037001;28;20573;-72
2021/03/18 07:56:15;;;;;;;10.80;9.70;;;2.90;99.90;;;;;;5036747;28;20269;-72
2021/03/18 07:58:42;;;;;;;14.63;8.60;;;2.90;99.90;;;;;;5032325;28;20207;-73
2021/03/18 08:01:28;;;;;;;10.33;8.83;;;2.90;99.90;;;;;;5029731;28;20589;-72
2021/03/18 08:03:54;;;;;;;10.60;8.27;;;3.00;99.90;;;;;;5035221;28;20197;-72
2021/03/18 08:06:42;;;;;;;10.20;8.30;;;3.00;99.90;;;;;;5035168;28;20540;-72
2021/03/18 08:09:26;;;;;;;10.33;8.63;;;3.00;99.90;;;;;;5036548;28;20170;-72
2021/03/18 08:11:53;;;;;;;11.77;9.73;;;3.10;99.90;;;;;;5036351;28;20185;-73
2021/03/18 08:14:25;;;;;;;12.83;10.03;;;3.00;99.90;;;;;;5036210;28;20253;-73
2021/03/18 08:16:55;;;;;;;25.63;16.67;;;3.00;99.90;;;;;;5036025;28;20211;-72
2021/03/18 08:19:21;;;;;;;14.57;9.37;;;2.90;99.90;;;;;;5036314;28;20186;-72
2021/03/18 08:21:54;;;;;;;13.57;10.10;;;2.90;99.90;;;;;;5036298;28;20298;-72
2021/03/18 08:24:30;;;;;;;13.13;9.00;;;2.90;99.90;;;;;;5036101;28;20680;-72
2021/03/18 08:27:05;;;;;;;12.60;9.40;;;2.90;99.90;;;;;;5035820;28;20657;-72
2021/03/18 08:29:41;;;;;;;11.57;9.17;;;2.90;99.90;;;;;;5034550;28;20244;-72
2021/03/18 08:32:27;;;;;;;11.80;9.73;;;3.00;99.90;;;;;;5036308;28;20178;-72
2021/03/18 08:35:00;;;;;;;16.00;11.73;;;3.10;99.90;;;;;;5035859;28;20174;-72
2021/03/18 08:37:37;;;;;;;12.03;9.77;;;3.00;99.90;;;;;;5035978;28;20197;-73
2021/03/18 08:40:25;;;;;;;14.23;11.90;;;3.20;99.90;;;;;;5035776;28;20233;-72
2021/03/18 08:42:51;;;;;;;12.00;9.83;;;3.00;99.90;;;;;;5035562;28;20206;-72
2021/03/18 08:45:20;;;;;;;13.63;10.87;;;3.10;99.90;;;;;;5035976;28;20185;-72
2021/03/18 08:47:57;;;;;;;11.87;10.27;;;3.00;99.90;;;;;;5035536;28;20194;-72
2021/03/18 08:50:28;;;;;;;13.17;10.30;;;3.10;99.90;;;;;;5034936;28;20257;-71
2021/03/18 08:52:56;;;;;;;16.10;10.37;;;3.10;99.90;;;;;;5034365;28;20181;-71
2021/03/18 08:55:45;;;;;;;12.23;9.87;;;3.20;99.90;;;;;;5035799;28;20186;-72
2021/03/18 08:58:14;;;;;;;11.20;10.00;;;3.20;99.90;;;;;;5035436;28;20193;-72
2021/03/18 09:00:42;;;;;;;11.53;9.80;;;3.20;99.90;;;;;;5035424;28;20654;-72
2021/03/18 09:03:08;;;;;;;13.70;10.23;;;3.20;99.90;;;;;;5035268;28;20220;-72
2021/03/18 09:05:34;;;;;;;14.37;11.30;;;3.30;99.90;;;;;;5035697;28;20689;-72
2021/03/18 09:08:04;;;;;;;13.27;10.03;;;3.40;99.90;;;;;;5035156;28;20206;-73
2021/03/18 09:10:32;;;;;;;16.60;11.77;;;3.50;99.90;;;;;;5035449;28;20653;-72
2021/03/18 09:12:59;;;;;;;11.20;9.60;;;3.50;99.90;;;;;;5035567;28;20266;-72
2021/03/18 09:15:30;;;;;;;11.30;9.70;;;3.50;99.90;;;;;;5033734;28;20177;-71
2021/03/18 09:18:22;;;;;;;11.83;10.43;;;3.50;99.90;;;;;;5035075;28;20205;-71
2021/03/18 09:20:54;;;;;;;12.77;10.27;;;3.60;99.90;;;;;;5033777;28;20198;-72
2021/03/18 09:23:26;;;;;;;11.47;9.87;;;3.60;99.90;;;;;;5035283;28;20206;-72
2021/03/18 09:25:56;;;;;;;11.90;9.37;;;3.70;99.90;;;;;;5035086;28;20576;-71
2021/03/18 09:28:22;;;;;;;11.87;9.43;;;3.70;99.90;;;;;;5034810;28;20231;-72
2021/03/18 09:30:54;;;;;;;12.50;10.47;;;3.80;99.90;;;;;;5034924;28;20226;-72
2021/03/18 09:33:45;;;;;;;11.10;8.53;;;3.80;99.90;;;;;;5034873;28;20180;-72
2021/03/18 09:36:14;;;;;;;11.73;8.20;;;3.80;99.90;;;;;;5034851;28;20211;-72
2021/03/18 09:38:41;;;;;;;10.67;9.57;;;3.90;99.90;;;;;;5033045;28;20194;-72
2021/03/18 09:41:07;;;;;;;10.60;9.50;;;3.90;99.90;;;;;;5034673;28;20221;-73
2021/03/18 09:43:33;;;;;;;11.13;9.90;;;3.90;99.90;;;;;;5034709;28;20263;-72
2021/03/18 09:46:05;;;;;;;33.00;13.27;;;4.00;99.90;;;;;;5034564;28;20250;-73
2021/03/18 09:48:37;;;;;;;24.77;14.27;;;4.00;99.90;;;;;;5032697;28;20322;-72
2021/03/18 09:51:16;;;;;;;9.70;7.17;;;4.00;99.90;;;;;;5033062;28;20203;-73
2021/03/18 09:53:54;;;;;;;7.63;6.83;;;4.00;99.90;;;;;;5022603;28;20262;-72
2021/03/18 09:56:20;;;;;;;11.00;9.70;;;4.10;99.90;;;;;;5034836;28;20190;-72
2021/03/18 09:58:46;;;;;;;10.67;9.20;;;4.00;99.90;;;;;;5034219;28;20191;-73
2021/03/18 10:01:23;;;;;;;10.87;9.70;;;4.00;99.90;;;;;;5034142;28;20350;-72
2021/03/18 10:04:01;;;;;;;8.03;7.23;;;4.00;99.90;;;;;;5033073;28;20213;-72
2021/03/18 10:06:32;;;;;;;8.87;8.00;;;4.10;99.90;;;;;;5034451;28;20171;-73
2021/03/18 10:09:17;;;;;;;9.23;8.27;;;4.10;99.90;;;;;;5034362;28;20230;-73
2021/03/18 10:11:44;;;;;;;8.60;7.73;;;4.20;99.90;;;;;;5034366;28;20170;-72
2021/03/18 10:14:11;;;;;;;8.87;7.90;;;4.20;99.90;;;;;;5034432;28;20175;-71
2021/03/18 10:16:38;;;;;;;9.40;7.83;;;4.40;99.90;;;;;;5033960;28;20192;-72
2021/03/18 10:19:05;;;;;;;8.10;7.30;;;4.50;99.90;;;;;;5033948;28;20565;-72
2021/03/18 10:21:33;;;;;;;8.47;6.93;;;4.50;99.90;;;;;;5034091;28;20256;-72
2021/03/18 10:23:59;;;;;;;8.53;6.73;;;4.40;99.90;;;;;;5032780;28;20176;-72
2021/03/18 10:26:27;;;;;;;8.17;7.07;;;4.40;99.90;;;;;;5032696;28;20175;-72
2021/03/18 10:29:01;;;;;;;7.80;7.00;;;4.50;99.90;;;;;;5033425;28;20215;-72
2021/03/18 10:31:28;;;;;;;7.73;7.03;;;4.40;99.90;;;;;;5034021;28;20174;-72
2021/03/18 10:33:53;;;;;;;7.73;7.13;;;4.50;99.90;;;;;;5032429;28;20183;-72
2021/03/18 10:36:34;;;;;;;7.00;6.30;;;4.50;99.90;;;;;;5033612;28;20179;-72
2021/03/18 10:39:03;;;;;;;7.00;6.30;;;4.60;99.90;;;;;;5033713;28;20204;-73
2021/03/18 10:41:29;;;;;;;8.83;6.83;;;4.60;99.90;;;;;;5033756;28;20205;-72
2021/03/18 10:43:55;;;;;;;6.40;5.77;;;4.70;99.90;;;;;;5033530;28;20642;-72
2021/03/18 10:46:36;;;;;;;6.43;5.83;;;4.80;99.90;;;;;;5033496;28;20187;-72
2021/03/18 10:49:04;;;;;;;7.70;6.37;;;4.70;99.90;;;;;;5033555;28;20199;-73
2021/03/18 10:51:30;;;;;;;7.90;6.97;;;4.70;99.90;;;;;;5032116;28;20203;-72
2021/03/18 10:53:56;;;;;;;6.97;6.10;;;4.70;99.90;;;;;;5033589;28;20656;-72
2021/03/18 10:56:26;;;;;;;7.37;6.67;;;4.50;99.90;;;;;;5033276;28;20695;-73
2021/03/18 10:58:52;;;;;;;14.50;9.87;;;4.50;99.90;;;;;;5033282;28;20199;-72
2021/03/18 11:01:29;;;;;;;22.50;14.30;;;4.40;99.90;;;;;;5033112;28;20190;-72
2021/03/18 11:04:05;;;;;;;114.23;47.47;;;4.40;99.90;;;;;;5033610;28;20651;-72
2021/03/18 11:06:31;;;;;;;32.90;19.80;;;4.30;99.90;;;;;;5033255;28;20544;-72
2021/03/18 11:08:58;;;;;;;21.53;13.87;;;4.40;99.90;;;;;;5033097;28;20192;-72
2021/03/18 11:11:30;;;;;;;10.03;8.57;;;4.40;99.90;;;;;;5034503;28;20179;-73
2021/03/18 11:14:13;;;;;;;9.73;8.73;;;4.40;99.90;;;;;;5033160;28;20236;-73
2021/03/18 11:16:42;;;;;;;14.80;10.33;;;4.40;99.90;;;;;;5032984;28;20260;-72
2021/03/18 11:19:13;;;;;;;11.50;9.37;;;4.30;99.90;;;;;;5033137;28;20184;-72
2021/03/18 11:21:42;;;;;;;11.63;9.17;;;4.30;99.90;;;;;;5032892;28;20201;-73
2021/03/18 11:24:21;;;;;;;10.13;9.17;;;4.20;99.90;;;;;;5033405;28;20185;-72
2021/03/18 11:26:52;;;;;;;9.80;8.90;;;4.10;99.90;;;;;;5031846;28;20181;-72
2021/03/18 11:29:20;;;;;;;12.63;10.00;;;4.00;99.90;;;;;;5059542;23;20312;-75
2021/03/18 11:31:52;;;;;;;9.50;8.50;;;4.10;99.90;;;;;;5053017;28;20175;-75
2021/03/18 11:34:19;;;;;;;10.93;8.93;;;4.10;99.90;;;;;;5053363;28;20186;-74
2021/03/18 11:36:50;;;;;;;11.80;10.60;;;3.80;99.90;;;;;;5053193;28;20598;-74
2021/03/18 11:39:17;;;;;;;9.40;7.97;;;3.80;99.90;;;;;;5047913;28;20290;-74
2021/03/18 11:41:43;;;;;;;12.63;10.83;;;3.70;99.90;;;;;;5029924;28;20190;-74
2021/03/18 11:44:09;;;;;;;10.20;8.23;;;3.80;99.90;;;;;;5044297;28;20187;-75
2021/03/18 11:46:35;;;;;;;10.47;9.40;;;3.70;99.90;;;;;;5031601;28;20178;-75
2021/03/18 11:49:00;;;;;;;9.53;8.63;;;3.80;99.90;;;;;;5030507;28;20201;-75
2021/03/18 11:51:29;;;;;;;10.70;8.20;;;3.70;99.90;;;;;;5031746;28;20174;-75
2021/03/18 11:53:55;;;;;;;7.07;5.27;;;3.80;99.90;;;;;;5018254;28;20176;-75
2021/03/18 11:56:21;;;;;;;6.40;5.80;;;3.80;99.90;;;;;;5036219;28;20667;-75
2021/03/18 11:58:49;;;;;;;8.13;7.33;;;3.90;99.90;;;;;;5021377;28;20287;-74
2021/03/18 12:01:16;;;;;;;7.60;6.80;;;3.90;99.90;;;;;;5021391;28;20200;-75
2021/03/18 12:03:43;;;;;;;7.07;6.37;;;3.80;99.90;;;;;;5023785;28;20206;-74
2021/03/18 12:06:08;;;;;;;8.30;7.50;;;3.90;99.90;;;;;;5028161;28;20226;-74
2021/03/18 12:08:34;;;;;;;7.77;7.00;;;4.00;99.90;;;;;;5022853;28;20650;-74
2021/03/18 12:11:01;;;;;;;7.97;6.10;;;4.00;99.90;;;;;;5029958;28;20175;-74
2021/03/18 12:13:27;;;;;;;6.13;5.63;;;4.20;99.90;;;;;;5043073;28;20180;-75
2021/03/18 12:15:52;;;;;;;6.60;6.00;;;4.30;99.90;;;;;;5024428;28;20180;-74
2021/03/18 12:18:18;;;;;;;6.93;5.13;;;4.40;99.90;;;;;;5021160;28;20199;-75
2021/03/18 12:20:44;;;;;;;9.53;5.83;;;4.70;99.90;;;;;;5027144;28;20176;-74
2021/03/18 12:23:10;;;;;;;7.13;6.33;;;4.50;99.90;;;;;;5028764;28;20680;-75
2021/03/18 12:25:36;;;;;;;7.93;6.40;;;4.60;99.90;;;;;;5032123;28;20181;-74
2021/03/18 12:28:02;;;;;;;6.37;5.77;;;4.70;99.90;;;;;;5035315;28;20226;-74
2021/03/18 12:30:28;;;;;;;6.23;5.73;;;4.70;99.90;;;;;;5032204;28;20594;-75
2021/03/18 12:32:54;;;;;;;6.77;5.83;;;4.60;99.90;;;;;;5034675;28;20653;-75
2021/03/18 12:35:21;;;;;;;6.27;5.67;;;4.70;99.90;;;;;;5033983;28;20549;-74
2021/03/18 12:37:50;;;;;;;6.87;6.17;;;4.70;99.90;;;;;;5035586;28;20263;-74
2021/03/18 12:40:17;;;;;;;9.03;6.20;;;4.70;99.90;;;;;;5035520;28;20175;-75
2021/03/18 12:42:42;;;;;;;6.27;5.67;;;4.60;99.90;;;;;;5032701;28;20657;-75
2021/03/18 12:45:11;;;;;;;6.80;6.20;;;4.60;99.90;;;;;;5035598;28;20236;-74
2021/03/18 12:47:38;;;;;;;8.53;6.53;;;4.50;99.90;;;;;;5034411;28;20599;-75
2021/03/18 12:50:13;;;;;;;6.77;6.07;;;4.70;99.90;;;;;;5035657;28;20266;-75
2021/03/18 12:52:39;;;;;;;7.53;6.83;;;4.70;99.90;;;;;;5035983;28;20229;-76
2021/03/18 12:55:09;;;;;;;6.67;6.07;;;4.90;99.90;;;;;;5035877;28;20211;-75
2021/03/18 12:57:35;;;;;;;8.47;7.67;;;4.90;99.90;;;;;;5034567;28;20533;-74
2021/03/18 13:00:02;;;;;;;12.40;7.23;;;4.80;99.90;;;;;;5033263;28;20333;-74
2021/03/18 13:02:28;;;;;;;9.20;7.17;;;4.70;99.90;;;;;;5027916;28;20201;-75
2021/03/18 13:04:54;;;;;;;7.97;7.17;;;4.60;99.90;;;;;;5032393;28;20168;-74